sensor_id;sensor_type;location;lat;lon;timestamp;P1;durP1;ratioP1;P2;durP2;ratioP2
36355;SDS011;22384;54.302;18.596;2023-11-21T00:00:56;10.18;;;6.55;;
36355;SDS011;22384;54.302;18.596;2023-11-21T00:03:23;10.70;;;5.63;;
36355;SDS011;22384;54.302;18.596;2023-11-21T00:05:50;12.98;;;5.72;;
36355;SDS011;22384;54.302;18.596;2023-11-21T00:08:16;14.45;;;6.07;;
36355;SDS011;22384;54.302;18.596;2023-11-21T00:10:42;10.70;;;5.20;;
36355;SDS011;22384;54.302;18.596;2023-11-21T00:13:08;10.07;;;5.70;;
36355;SDS011;22384;54.302;18.596;2023-11-21T00:15:34;10.60;;;5.57;;
36355;SDS011;22384;54.302;18.596;2023-11-21T00:18:00;9.65;;;5.32;;
36355;SDS011;22384;54.302;18.596;2023-11-21T00:20:26;14.65;;;6.28;;
36355;SDS011;22384;54.302;18.596;2023-11-21T00:22:52;12.88;;;5.70;;
36355;SDS011;22384;54.302;18.596;2023-11-21T00:25:18;12.80;;;5.85;;
36355;SDS011;22384;54.302;18.596;2023-11-21T00:27:45;15.98;;;7.68;;
36355;SDS011;22384;54.302;18.596;2023-11-21T00:30:11;15.52;;;7.20;;
36355;SDS011;22384;54.302;18.596;2023-11-21T00:32:37;15.15;;;7.82;;
36355;SDS011;22384;54.302;18.596;2023-11-21T00:35:04;14.88;;;5.93;;
36355;SDS011;22384;54.302;18.596;2023-11-21T00:37:30;13.43;;;6.78;;
36355;SDS011;22384;54.302;18.596;2023-11-21T00:39:57;14.45;;;7.70;;
36355;SDS011;22384;54.302;18.596;2023-11-21T00:42:23;16.67;;;6.85;;
36355;SDS011;22384;54.302;18.596;2023-11-21T00:44:49;17.08;;;7.10;;
36355;SDS011;22384;54.302;18.596;2023-11-21T00:47:15;13.23;;;6.22;;
36355;SDS011;22384;54.302;18.596;2023-11-21T00:49:41;17.08;;;6.47;;
36355;SDS011;22384;54.302;18.596;2023-11-21T00:52:08;14.18;;;6.20;;
36355;SDS011;22384;54.302;18.596;2023-11-21T00:54:34;14.77;;;6.38;;
36355;SDS011;22384;54.302;18.596;2023-11-21T00:57:01;10.70;;;6.10;;
36355;SDS011;22384;54.302;18.596;2023-11-21T00:59:27;11.13;;;6.38;;
36355;SDS011;22384;54.302;18.596;2023-11-21T01:01:53;13.13;;;6.72;;
36355;SDS011;22384;54.302;18.596;2023-11-21T01:04:19;12.73;;;5.75;;
36355;SDS011;22384;54.302;18.596;2023-11-21T01:06:45;10.13;;;5.97;;
36355;SDS011;22384;54.302;18.596;2023-11-21T01:09:11;10.82;;;6.00;;
36355;SDS011;22384;54.302;18.596;2023-11-21T01:11:37;9.80;;;5.18;;
36355;SDS011;22384;54.302;18.596;2023-11-21T01:14:04;11.63;;;5.18;;
36355;SDS011;22384;54.302;18.596;2023-11-21T01:16:31;12.05;;;5.30;;
36355;SDS011;22384;54.302;18.596;2023-11-21T01:18:57;11.88;;;4.95;;
36355;SDS011;22384;54.302;18.596;2023-11-21T01:21:24;8.00;;;4.88;;
36355;SDS011;22384;54.302;18.596;2023-11-21T01:23:50;7.18;;;4.70;;
36355;SDS011;22384;54.302;18.596;2023-11-21T01:26:16;7.78;;;4.55;;
36355;SDS011;22384;54.302;18.596;2023-11-21T01:28:42;6.97;;;4.53;;
36355;SDS011;22384;54.302;18.596;2023-11-21T01:31:08;8.85;;;5.32;;
36355;SDS011;22384;54.302;18.596;2023-11-21T01:33:34;10.60;;;5.38;;
36355;SDS011;22384;54.302;18.596;2023-11-21T01:36:00;5.78;;;4.22;;
36355;SDS011;22384;54.302;18.596;2023-11-21T01:38:26;7.82;;;4.55;;
36355;SDS011;22384;54.302;18.596;2023-11-21T01:40:52;8.70;;;4.55;;
36355;SDS011;22384;54.302;18.596;2023-11-21T01:43:18;11.93;;;4.55;;
36355;SDS011;22384;54.302;18.596;2023-11-21T01:45:44;5.78;;;4.00;;
36355;SDS011;22384;54.302;18.596;2023-11-21T01:48:10;9.00;;;4.45;;
36355;SDS011;22384;54.302;18.596;2023-11-21T01:50:37;7.85;;;3.75;;
36355;SDS011;22384;54.302;18.596;2023-11-21T01:53:03;7.32;;;4.60;;
36355;SDS011;22384;54.302;18.596;2023-11-21T01:55:30;8.38;;;4.45;;
36355;SDS011;22384;54.302;18.596;2023-11-21T01:57:56;7.80;;;4.22;;
36355;SDS011;22384;54.302;18.596;2023-11-21T02:00:23;6.47;;;3.67;;
36355;SDS011;22384;54.302;18.596;2023-11-21T02:02:49;12.45;;;5.05;;
36355;SDS011;22384;54.302;18.596;2023-11-21T02:05:15;10.40;;;5.85;;
36355;SDS011;22384;54.302;18.596;2023-11-21T02:07:46;8.63;;;4.22;;
36355;SDS011;22384;54.302;18.596;2023-11-21T02:10:13;7.05;;;3.63;;
36355;SDS011;22384;54.302;18.596;2023-11-21T02:12:40;6.78;;;4.03;;
36355;SDS011;22384;54.302;18.596;2023-11-21T02:15:07;8.02;;;4.60;;
36355;SDS011;22384;54.302;18.596;2023-11-21T02:17:40;7.30;;;4.18;;
36355;SDS011;22384;54.302;18.596;2023-11-21T02:20:06;7.55;;;4.30;;
36355;SDS011;22384;54.302;18.596;2023-11-21T02:22:33;8.35;;;4.15;;
36355;SDS011;22384;54.302;18.596;2023-11-21T02:25:02;6.35;;;3.67;;
36355;SDS011;22384;54.302;18.596;2023-11-21T02:27:28;6.35;;;4.03;;
36355;SDS011;22384;54.302;18.596;2023-11-21T02:29:54;6.65;;;4.20;;
36355;SDS011;22384;54.302;18.596;2023-11-21T02:32:20;6.43;;;3.78;;
36355;SDS011;22384;54.302;18.596;2023-11-21T02:34:48;8.15;;;4.10;;
36355;SDS011;22384;54.302;18.596;2023-11-21T02:37:15;8.25;;;3.83;;
36355;SDS011;22384;54.302;18.596;2023-11-21T02:39:41;7.70;;;3.92;;
36355;SDS011;22384;54.302;18.596;2023-11-21T02:42:07;7.45;;;3.70;;
36355;SDS011;22384;54.302;18.596;2023-11-21T02:44:33;8.98;;;3.42;;
36355;SDS011;22384;54.302;18.596;2023-11-21T02:47:00;6.18;;;3.58;;
36355;SDS011;22384;54.302;18.596;2023-11-21T02:49:26;7.15;;;4.00;;
36355;SDS011;22384;54.302;18.596;2023-11-21T02:51:55;7.90;;;3.73;;
36355;SDS011;22384;54.302;18.596;2023-11-21T02:54:21;7.18;;;3.72;;
36355;SDS011;22384;54.302;18.596;2023-11-21T02:56:48;5.80;;;3.05;;
36355;SDS011;22384;54.302;18.596;2023-11-21T02:59:14;7.03;;;3.58;;
36355;SDS011;22384;54.302;18.596;2023-11-21T03:01:40;6.50;;;3.90;;
36355;SDS011;22384;54.302;18.596;2023-11-21T03:04:07;6.40;;;3.45;;
36355;SDS011;22384;54.302;18.596;2023-11-21T03:06:33;5.97;;;3.45;;
36355;SDS011;22384;54.302;18.596;2023-11-21T03:08:59;5.78;;;3.72;;
36355;SDS011;22384;54.302;18.596;2023-11-21T03:11:25;7.07;;;3.88;;
36355;SDS011;22384;54.302;18.596;2023-11-21T03:13:51;7.55;;;3.90;;
36355;SDS011;22384;54.302;18.596;2023-11-21T03:16:18;9.00;;;3.63;;
36355;SDS011;22384;54.302;18.596;2023-11-21T03:18:44;6.95;;;4.07;;
36355;SDS011;22384;54.302;18.596;2023-11-21T03:21:11;7.57;;;3.22;;
36355;SDS011;22384;54.302;18.596;2023-11-21T03:23:38;6.22;;;3.67;;
36355;SDS011;22384;54.302;18.596;2023-11-21T03:26:04;5.25;;;3.20;;
36355;SDS011;22384;54.302;18.596;2023-11-21T03:28:33;6.45;;;3.58;;
36355;SDS011;22384;54.302;18.596;2023-11-21T03:30:59;5.97;;;3.42;;
36355;SDS011;22384;54.302;18.596;2023-11-21T03:33:25;8.07;;;3.95;;
36355;SDS011;22384;54.302;18.596;2023-11-21T03:35:51;6.85;;;3.75;;
36355;SDS011;22384;54.302;18.596;2023-11-21T03:38:18;7.25;;;3.75;;
36355;SDS011;22384;54.302;18.596;2023-11-21T03:40:44;6.90;;;3.40;;
36355;SDS011;22384;54.302;18.596;2023-11-21T03:43:10;6.43;;;3.67;;
36355;SDS011;22384;54.302;18.596;2023-11-21T03:45:37;7.20;;;4.18;;
36355;SDS011;22384;54.302;18.596;2023-11-21T03:48:05;5.28;;;3.40;;
36355;SDS011;22384;54.302;18.596;2023-11-21T03:50:31;5.68;;;3.03;;
36355;SDS011;22384;54.302;18.596;2023-11-21T03:52:57;6.40;;;3.17;;
36355;SDS011;22384;54.302;18.596;2023-11-21T03:55:23;5.90;;;3.50;;
36355;SDS011;22384;54.302;18.596;2023-11-21T03:57:50;7.10;;;4.05;;
36355;SDS011;22384;54.302;18.596;2023-11-21T04:00:16;7.32;;;3.75;;
36355;SDS011;22384;54.302;18.596;2023-11-21T04:02:42;7.65;;;3.85;;
36355;SDS011;22384;54.302;18.596;2023-11-21T04:05:09;7.85;;;4.05;;
36355;SDS011;22384;54.302;18.596;2023-11-21T04:07:35;5.22;;;2.83;;
36355;SDS011;22384;54.302;18.596;2023-11-21T04:10:03;6.05;;;3.83;;
36355;SDS011;22384;54.302;18.596;2023-11-21T04:12:32;7.45;;;3.92;;
36355;SDS011;22384;54.302;18.596;2023-11-21T04:14:58;7.90;;;4.72;;
36355;SDS011;22384;54.302;18.596;2023-11-21T04:17:24;6.10;;;3.63;;
36355;SDS011;22384;54.302;18.596;2023-11-21T04:19:50;6.88;;;4.10;;
36355;SDS011;22384;54.302;18.596;2023-11-21T04:22:16;7.32;;;3.90;;
36355;SDS011;22384;54.302;18.596;2023-11-21T04:24:42;8.00;;;3.92;;
36355;SDS011;22384;54.302;18.596;2023-11-21T04:27:08;6.60;;;3.50;;
36355;SDS011;22384;54.302;18.596;2023-11-21T04:29:35;8.68;;;4.03;;
36355;SDS011;22384;54.302;18.596;2023-11-21T04:32:01;9.00;;;4.38;;
36355;SDS011;22384;54.302;18.596;2023-11-21T04:34:28;7.88;;;4.40;;
36355;SDS011;22384;54.302;18.596;2023-11-21T04:36:57;5.75;;;3.30;;
36355;SDS011;22384;54.302;18.596;2023-11-21T04:39:23;8.10;;;4.47;;
36355;SDS011;22384;54.302;18.596;2023-11-21T04:41:50;8.60;;;4.00;;
36355;SDS011;22384;54.302;18.596;2023-11-21T04:44:17;6.40;;;3.88;;
36355;SDS011;22384;54.302;18.596;2023-11-21T04:46:43;8.38;;;4.55;;
36355;SDS011;22384;54.302;18.596;2023-11-21T04:49:09;8.95;;;4.22;;
36355;SDS011;22384;54.302;18.596;2023-11-21T04:51:36;9.75;;;4.40;;
36355;SDS011;22384;54.302;18.596;2023-11-21T04:54:02;7.00;;;4.03;;
36355;SDS011;22384;54.302;18.596;2023-11-21T04:56:28;7.93;;;4.68;;
36355;SDS011;22384;54.302;18.596;2023-11-21T04:58:54;10.40;;;4.88;;
36355;SDS011;22384;54.302;18.596;2023-11-21T05:01:20;7.88;;;4.65;;
36355;SDS011;22384;54.302;18.596;2023-11-21T05:03:46;9.20;;;4.32;;
36355;SDS011;22384;54.302;18.596;2023-11-21T05:06:13;8.20;;;4.32;;
36355;SDS011;22384;54.302;18.596;2023-11-21T05:08:40;8.00;;;4.40;;
36355;SDS011;22384;54.302;18.596;2023-11-21T05:11:07;7.78;;;4.13;;
36355;SDS011;22384;54.302;18.596;2023-11-21T05:13:35;7.18;;;3.83;;
36355;SDS011;22384;54.302;18.596;2023-11-21T05:16:01;8.57;;;4.10;;
36355;SDS011;22384;54.302;18.596;2023-11-21T05:18:29;8.77;;;4.05;;
36355;SDS011;22384;54.302;18.596;2023-11-21T05:20:55;9.60;;;4.35;;
36355;SDS011;22384;54.302;18.596;2023-11-21T05:23:21;10.18;;;4.60;;
36355;SDS011;22384;54.302;18.596;2023-11-21T05:25:48;11.75;;;5.50;;
36355;SDS011;22384;54.302;18.596;2023-11-21T05:28:14;12.77;;;5.65;;
36355;SDS011;22384;54.302;18.596;2023-11-21T05:30:40;33.85;;;7.35;;
36355;SDS011;22384;54.302;18.596;2023-11-21T05:33:06;18.30;;;6.70;;
36355;SDS011;22384;54.302;18.596;2023-11-21T05:35:32;11.40;;;5.95;;
36355;SDS011;22384;54.302;18.596;2023-11-21T05:37:58;14.30;;;6.20;;
36355;SDS011;22384;54.302;18.596;2023-11-21T05:40:24;14.18;;;6.40;;
36355;SDS011;22384;54.302;18.596;2023-11-21T05:42:54;13.52;;;5.50;;
36355;SDS011;22384;54.302;18.596;2023-11-21T05:45:21;14.95;;;6.43;;
36355;SDS011;22384;54.302;18.596;2023-11-21T05:47:47;11.48;;;5.53;;
36355;SDS011;22384;54.302;18.596;2023-11-21T05:50:14;13.20;;;5.55;;
36355;SDS011;22384;54.302;18.596;2023-11-21T05:52:40;11.30;;;5.65;;
36355;SDS011;22384;54.302;18.596;2023-11-21T05:55:07;10.65;;;4.63;;
36355;SDS011;22384;54.302;18.596;2023-11-21T05:57:34;8.35;;;4.65;;
36355;SDS011;22384;54.302;18.596;2023-11-21T06:00:04;8.95;;;4.63;;
36355;SDS011;22384;54.302;18.596;2023-11-21T06:02:43;6.82;;;3.30;;
36355;SDS011;22384;54.302;18.596;2023-11-21T06:05:10;7.53;;;4.10;;
36355;SDS011;22384;54.302;18.596;2023-11-21T06:07:37;6.38;;;3.88;;
36355;SDS011;22384;54.302;18.596;2023-11-21T06:10:04;7.70;;;4.03;;
36355;SDS011;22384;54.302;18.596;2023-11-21T06:12:37;7.68;;;4.18;;
36355;SDS011;22384;54.302;18.596;2023-11-21T06:15:05;7.18;;;4.25;;
36355;SDS011;22384;54.302;18.596;2023-11-21T06:17:33;10.60;;;3.88;;
36355;SDS011;22384;54.302;18.596;2023-11-21T06:20:04;8.15;;;4.40;;
36355;SDS011;22384;54.302;18.596;2023-11-21T06:22:36;8.85;;;4.50;;
36355;SDS011;22384;54.302;18.596;2023-11-21T06:25:02;6.40;;;3.92;;
36355;SDS011;22384;54.302;18.596;2023-11-21T06:27:32;7.60;;;4.15;;
36355;SDS011;22384;54.302;18.596;2023-11-21T06:29:59;6.82;;;4.45;;
36355;SDS011;22384;54.302;18.596;2023-11-21T06:32:25;7.47;;;4.05;;
36355;SDS011;22384;54.302;18.596;2023-11-21T06:34:51;7.55;;;4.25;;
36355;SDS011;22384;54.302;18.596;2023-11-21T06:37:20;8.40;;;3.80;;
36355;SDS011;22384;54.302;18.596;2023-11-21T06:39:48;7.43;;;4.15;;
36355;SDS011;22384;54.302;18.596;2023-11-21T06:42:17;8.85;;;4.38;;
36355;SDS011;22384;54.302;18.596;2023-11-21T06:44:44;8.02;;;4.40;;
36355;SDS011;22384;54.302;18.596;2023-11-21T06:47:12;8.27;;;4.30;;
36355;SDS011;22384;54.302;18.596;2023-11-21T06:49:38;8.52;;;4.60;;
36355;SDS011;22384;54.302;18.596;2023-11-21T06:52:04;8.13;;;4.10;;
36355;SDS011;22384;54.302;18.596;2023-11-21T06:54:30;10.60;;;4.22;;
36355;SDS011;22384;54.302;18.596;2023-11-21T06:56:57;10.60;;;3.88;;
36355;SDS011;22384;54.302;18.596;2023-11-21T06:59:24;7.03;;;4.13;;
36355;SDS011;22384;54.302;18.596;2023-11-21T07:01:50;6.30;;;3.50;;
36355;SDS011;22384;54.302;18.596;2023-11-21T07:04:16;6.80;;;4.03;;
36355;SDS011;22384;54.302;18.596;2023-11-21T07:06:43;10.30;;;4.53;;
36355;SDS011;22384;54.302;18.596;2023-11-21T07:09:09;6.97;;;3.55;;
36355;SDS011;22384;54.302;18.596;2023-11-21T07:11:36;7.78;;;4.10;;
36355;SDS011;22384;54.302;18.596;2023-11-21T07:14:05;8.32;;;3.95;;
36355;SDS011;22384;54.302;18.596;2023-11-21T07:16:38;6.63;;;3.78;;
36355;SDS011;22384;54.302;18.596;2023-11-21T07:19:04;6.47;;;3.63;;
36355;SDS011;22384;54.302;18.596;2023-11-21T07:21:34;7.40;;;4.03;;
36355;SDS011;22384;54.302;18.596;2023-11-21T07:24:00;9.07;;;4.15;;
36355;SDS011;22384;54.302;18.596;2023-11-21T07:26:27;7.40;;;4.15;;
36355;SDS011;22384;54.302;18.596;2023-11-21T07:28:53;8.32;;;4.00;;
36355;SDS011;22384;54.302;18.596;2023-11-21T07:31:19;7.70;;;4.25;;
36355;SDS011;22384;54.302;18.596;2023-11-21T07:33:46;8.75;;;4.43;;
36355;SDS011;22384;54.302;18.596;2023-11-21T07:36:12;12.73;;;4.03;;
36355;SDS011;22384;54.302;18.596;2023-11-21T07:38:38;7.13;;;4.03;;
36355;SDS011;22384;54.302;18.596;2023-11-21T07:41:05;8.57;;;4.47;;
36355;SDS011;22384;54.302;18.596;2023-11-21T07:43:33;8.25;;;4.15;;
36355;SDS011;22384;54.302;18.596;2023-11-21T07:46:03;7.32;;;3.90;;
36355;SDS011;22384;54.302;18.596;2023-11-21T07:48:33;7.20;;;4.15;;
36355;SDS011;22384;54.302;18.596;2023-11-21T07:50:59;7.10;;;3.85;;
36355;SDS011;22384;54.302;18.596;2023-11-21T07:53:25;4.65;;;3.28;;
36355;SDS011;22384;54.302;18.596;2023-11-21T07:55:53;6.70;;;3.97;;
36355;SDS011;22384;54.302;18.596;2023-11-21T07:58:20;7.57;;;3.80;;
36355;SDS011;22384;54.302;18.596;2023-11-21T08:00:46;7.32;;;3.58;;
36355;SDS011;22384;54.302;18.596;2023-11-21T08:03:15;10.73;;;3.97;;
36355;SDS011;22384;54.302;18.596;2023-11-21T08:05:41;7.38;;;3.80;;
36355;SDS011;22384;54.302;18.596;2023-11-21T08:08:08;8.88;;;3.15;;
36355;SDS011;22384;54.302;18.596;2023-11-21T08:10:34;6.35;;;3.33;;
36355;SDS011;22384;54.302;18.596;2023-11-21T08:13:04;9.45;;;3.63;;
36355;SDS011;22384;54.302;18.596;2023-11-21T08:15:30;9.43;;;3.28;;
36355;SDS011;22384;54.302;18.596;2023-11-21T08:18:00;7.03;;;3.78;;
36355;SDS011;22384;54.302;18.596;2023-11-21T08:20:26;6.18;;;3.45;;
36355;SDS011;22384;54.302;18.596;2023-11-21T08:22:53;8.80;;;4.03;;
36355;SDS011;22384;54.302;18.596;2023-11-21T08:25:21;11.02;;;3.50;;
36355;SDS011;22384;54.302;18.596;2023-11-21T08:27:47;7.38;;;3.83;;
36355;SDS011;22384;54.302;18.596;2023-11-21T08:30:14;8.90;;;3.42;;
36355;SDS011;22384;54.302;18.596;2023-11-21T08:32:41;5.50;;;3.10;;
36355;SDS011;22384;54.302;18.596;2023-11-21T08:35:08;7.63;;;2.92;;
36355;SDS011;22384;54.302;18.596;2023-11-21T08:37:34;6.63;;;3.42;;
36355;SDS011;22384;54.302;18.596;2023-11-21T08:40:04;8.30;;;3.00;;
36355;SDS011;22384;54.302;18.596;2023-11-21T08:42:34;6.57;;;3.13;;
36355;SDS011;22384;54.302;18.596;2023-11-21T08:45:00;5.85;;;3.40;;
36355;SDS011;22384;54.302;18.596;2023-11-21T08:47:26;4.82;;;3.00;;
36355;SDS011;22384;54.302;18.596;2023-11-21T08:49:52;5.13;;;2.88;;
36355;SDS011;22384;54.302;18.596;2023-11-21T08:52:19;6.05;;;2.88;;
36355;SDS011;22384;54.302;18.596;2023-11-21T08:54:49;6.07;;;2.85;;
36355;SDS011;22384;54.302;18.596;2023-11-21T08:57:24;5.72;;;2.65;;
36355;SDS011;22384;54.302;18.596;2023-11-21T08:59:50;5.78;;;2.90;;
36355;SDS011;22384;54.302;18.596;2023-11-21T09:02:25;4.25;;;2.40;;
36355;SDS011;22384;54.302;18.596;2023-11-21T09:04:52;3.33;;;2.10;;
36355;SDS011;22384;54.302;18.596;2023-11-21T09:07:20;8.95;;;2.80;;
36355;SDS011;22384;54.302;18.596;2023-11-21T09:09:47;5.75;;;3.00;;
36355;SDS011;22384;54.302;18.596;2023-11-21T09:12:14;5.45;;;2.97;;
36355;SDS011;22384;54.302;18.596;2023-11-21T09:14:40;4.25;;;2.58;;
36355;SDS011;22384;54.302;18.596;2023-11-21T09:17:06;4.45;;;2.80;;
36355;SDS011;22384;54.302;18.596;2023-11-21T09:19:36;3.83;;;2.33;;
36355;SDS011;22384;54.302;18.596;2023-11-21T09:22:02;3.72;;;2.30;;
36355;SDS011;22384;54.302;18.596;2023-11-21T09:24:30;6.15;;;2.30;;
36355;SDS011;22384;54.302;18.596;2023-11-21T09:26:56;5.93;;;2.40;;
36355;SDS011;22384;54.302;18.596;2023-11-21T09:29:22;7.75;;;2.90;;
36355;SDS011;22384;54.302;18.596;2023-11-21T09:31:48;3.78;;;2.13;;
36355;SDS011;22384;54.302;18.596;2023-11-21T09:34:16;5.57;;;2.55;;
36355;SDS011;22384;54.302;18.596;2023-11-21T09:36:45;2.60;;;1.80;;
36355;SDS011;22384;54.302;18.596;2023-11-21T09:39:11;8.27;;;2.33;;
36355;SDS011;22384;54.302;18.596;2023-11-21T09:41:50;3.55;;;1.80;;
36355;SDS011;22384;54.302;18.596;2023-11-21T09:44:20;2.80;;;1.75;;
36355;SDS011;22384;54.302;18.596;2023-11-21T09:46:48;3.85;;;1.73;;
36355;SDS011;22384;54.302;18.596;2023-11-21T09:49:14;4.75;;;1.98;;
36355;SDS011;22384;54.302;18.596;2023-11-21T09:51:42;3.30;;;2.17;;
36355;SDS011;22384;54.302;18.596;2023-11-21T09:54:08;3.65;;;1.65;;
36355;SDS011;22384;54.302;18.596;2023-11-21T09:56:37;3.22;;;1.85;;
36355;SDS011;22384;54.302;18.596;2023-11-21T09:59:03;4.30;;;2.05;;
36355;SDS011;22384;54.302;18.596;2023-11-21T10:01:32;2.92;;;2.03;;
36355;SDS011;22384;54.302;18.596;2023-11-21T10:03:58;4.60;;;1.75;;
36355;SDS011;22384;54.302;18.596;2023-11-21T10:06:25;5.80;;;2.03;;
36355;SDS011;22384;54.302;18.596;2023-11-21T10:08:52;3.13;;;2.00;;
36355;SDS011;22384;54.302;18.596;2023-11-21T10:11:23;3.47;;;2.15;;
36355;SDS011;22384;54.302;18.596;2023-11-21T10:13:54;4.15;;;2.40;;
36355;SDS011;22384;54.302;18.596;2023-11-21T10:16:22;2.97;;;2.08;;
36355;SDS011;22384;54.302;18.596;2023-11-21T10:18:51;4.55;;;2.08;;
36355;SDS011;22384;54.302;18.596;2023-11-21T10:21:18;3.50;;;2.22;;
36355;SDS011;22384;54.302;18.596;2023-11-21T10:23:44;6.68;;;1.90;;
36355;SDS011;22384;54.302;18.596;2023-11-21T10:26:11;4.05;;;2.50;;
36355;SDS011;22384;54.302;18.596;2023-11-21T10:29:02;5.40;;;2.47;;
36355;SDS011;22384;54.302;18.596;2023-11-21T10:31:31;3.10;;;2.13;;
36355;SDS011;22384;54.302;18.596;2023-11-21T10:34:15;4.68;;;2.55;;
36355;SDS011;22384;54.302;18.596;2023-11-21T10:36:42;4.10;;;2.55;;
36355;SDS011;22384;54.302;18.596;2023-11-21T10:39:08;4.80;;;2.20;;
36355;SDS011;22384;54.302;18.596;2023-11-21T10:41:37;6.63;;;1.88;;
36355;SDS011;22384;54.302;18.596;2023-11-21T10:44:04;4.65;;;2.25;;
36355;SDS011;22384;54.302;18.596;2023-11-21T10:46:34;3.65;;;2.00;;
36355;SDS011;22384;54.302;18.596;2023-11-21T10:49:00;8.50;;;2.53;;
36355;SDS011;22384;54.302;18.596;2023-11-21T10:51:27;5.55;;;2.22;;
36355;SDS011;22384;54.302;18.596;2023-11-21T10:53:53;6.97;;;2.15;;
36355;SDS011;22384;54.302;18.596;2023-11-21T10:56:19;5.55;;;2.60;;
36355;SDS011;22384;54.302;18.596;2023-11-21T10:58:49;3.95;;;2.33;;
36355;SDS011;22384;54.302;18.596;2023-11-21T11:01:18;3.28;;;2.35;;
36355;SDS011;22384;54.302;18.596;2023-11-21T11:03:46;7.07;;;2.53;;
36355;SDS011;22384;54.302;18.596;2023-11-21T11:06:13;3.78;;;2.47;;
36355;SDS011;22384;54.302;18.596;2023-11-21T11:08:40;6.85;;;2.88;;
36355;SDS011;22384;54.302;18.596;2023-11-21T11:11:06;3.90;;;2.30;;
36355;SDS011;22384;54.302;18.596;2023-11-21T11:13:34;3.00;;;1.70;;
36355;SDS011;22384;54.302;18.596;2023-11-21T11:16:01;5.15;;;2.00;;
36355;SDS011;22384;54.302;18.596;2023-11-21T11:18:28;3.05;;;2.08;;
36355;SDS011;22384;54.302;18.596;2023-11-21T11:20:57;4.95;;;2.38;;
36355;SDS011;22384;54.302;18.596;2023-11-21T11:28:44;4.88;;;2.28;;
36355;SDS011;22384;54.302;18.596;2023-11-21T11:33:48;4.47;;;2.00;;
36355;SDS011;22384;54.302;18.596;2023-11-21T11:36:36;5.85;;;2.50;;
36355;SDS011;22384;54.302;18.596;2023-11-21T11:39:03;3.13;;;2.35;;
36355;SDS011;22384;54.302;18.596;2023-11-21T11:41:31;4.15;;;2.25;;
36355;SDS011;22384;54.302;18.596;2023-11-21T11:44:00;3.42;;;2.38;;
36355;SDS011;22384;54.302;18.596;2023-11-21T11:46:44;4.07;;;2.45;;
36355;SDS011;22384;54.302;18.596;2023-11-21T11:49:23;3.42;;;2.10;;
36355;SDS011;22384;54.302;18.596;2023-11-21T11:52:31;5.07;;;2.65;;
36355;SDS011;22384;54.302;18.596;2023-11-21T11:54:37;2.97;;;1.95;;
36355;SDS011;22384;54.302;18.596;2023-11-21T11:57:03;7.22;;;2.30;;
36355;SDS011;22384;54.302;18.596;2023-11-21T11:59:29;6.03;;;2.75;;
36355;SDS011;22384;54.302;18.596;2023-11-21T12:01:58;3.20;;;2.30;;
36355;SDS011;22384;54.302;18.596;2023-11-21T12:04:27;6.00;;;2.20;;
36355;SDS011;22384;54.302;18.596;2023-11-21T12:06:56;3.50;;;1.92;;
36355;SDS011;22384;54.302;18.596;2023-11-21T12:09:25;5.00;;;2.40;;
36355;SDS011;22384;54.302;18.596;2023-11-21T12:11:51;3.47;;;2.42;;
36355;SDS011;22384;54.302;18.596;2023-11-21T12:14:18;3.47;;;2.22;;
36355;SDS011;22384;54.302;18.596;2023-11-21T12:16:44;4.40;;;2.70;;
36355;SDS011;22384;54.302;18.596;2023-11-21T12:19:13;4.75;;;2.25;;
36355;SDS011;22384;54.302;18.596;2023-11-21T12:21:40;7.32;;;2.58;;
36355;SDS011;22384;54.302;18.596;2023-11-21T12:24:07;4.68;;;2.33;;
36355;SDS011;22384;54.302;18.596;2023-11-21T12:26:39;3.95;;;2.47;;
36355;SDS011;22384;54.302;18.596;2023-11-21T12:29:05;5.05;;;2.83;;
36355;SDS011;22384;54.302;18.596;2023-11-21T12:31:33;5.22;;;2.90;;
36355;SDS011;22384;54.302;18.596;2023-11-21T12:33:59;4.03;;;2.20;;
36355;SDS011;22384;54.302;18.596;2023-11-21T12:36:26;3.08;;;1.95;;
36355;SDS011;22384;54.302;18.596;2023-11-21T12:38:54;4.70;;;2.47;;
36355;SDS011;22384;54.302;18.596;2023-11-21T12:41:20;3.70;;;2.25;;
36355;SDS011;22384;54.302;18.596;2023-11-21T12:43:52;3.72;;;2.63;;
36355;SDS011;22384;54.302;18.596;2023-11-21T12:46:18;3.70;;;3.00;;
36355;SDS011;22384;54.302;18.596;2023-11-21T12:48:45;4.95;;;2.80;;
36355;SDS011;22384;54.302;18.596;2023-11-21T12:51:12;3.88;;;2.40;;
36355;SDS011;22384;54.302;18.596;2023-11-21T12:53:41;7.40;;;2.20;;
36355;SDS011;22384;54.302;18.596;2023-11-21T12:56:09;4.22;;;2.50;;
36355;SDS011;22384;54.302;18.596;2023-11-21T12:58:38;5.13;;;2.55;;
36355;SDS011;22384;54.302;18.596;2023-11-21T13:01:06;8.15;;;2.75;;
36355;SDS011;22384;54.302;18.596;2023-11-21T13:03:45;4.28;;;2.28;;
36355;SDS011;22384;54.302;18.596;2023-11-21T13:09:37;4.75;;;2.08;;
36355;SDS011;22384;54.302;18.596;2023-11-21T13:12:04;5.63;;;2.45;;
36355;SDS011;22384;54.302;18.596;2023-11-21T13:14:31;5.25;;;3.05;;
36355;SDS011;22384;54.302;18.596;2023-11-21T13:16:57;4.97;;;2.53;;
36355;SDS011;22384;54.302;18.596;2023-11-21T13:19:25;5.65;;;2.33;;
36355;SDS011;22384;54.302;18.596;2023-11-21T13:21:52;5.22;;;2.70;;
36355;SDS011;22384;54.302;18.596;2023-11-21T13:24:19;7.18;;;3.45;;
36355;SDS011;22384;54.302;18.596;2023-11-21T13:26:46;7.20;;;3.28;;
36355;SDS011;22384;54.302;18.596;2023-11-21T13:29:14;9.80;;;3.05;;
36355;SDS011;22384;54.302;18.596;2023-11-21T13:31:41;10.35;;;3.85;;
36355;SDS011;22384;54.302;18.596;2023-11-21T13:34:07;8.18;;;4.18;;
36355;SDS011;22384;54.302;18.596;2023-11-21T13:36:33;10.52;;;4.13;;
36355;SDS011;22384;54.302;18.596;2023-11-21T13:39:00;12.38;;;4.38;;
36355;SDS011;22384;54.302;18.596;2023-11-21T13:41:40;16.95;;;5.80;;
36355;SDS011;22384;54.302;18.596;2023-11-21T13:44:06;11.80;;;5.43;;
36355;SDS011;22384;54.302;18.596;2023-11-21T13:46:42;11.50;;;4.65;;
36355;SDS011;22384;54.302;18.596;2023-11-21T13:49:10;9.63;;;4.50;;
36355;SDS011;22384;54.302;18.596;2023-11-21T13:51:36;7.78;;;4.20;;
36355;SDS011;22384;54.302;18.596;2023-11-21T13:54:08;8.50;;;4.20;;
36355;SDS011;22384;54.302;18.596;2023-11-21T13:56:35;9.00;;;3.83;;
36355;SDS011;22384;54.302;18.596;2023-11-21T13:59:02;11.25;;;4.90;;
36355;SDS011;22384;54.302;18.596;2023-11-21T14:01:50;8.95;;;4.57;;
36355;SDS011;22384;54.302;18.596;2023-11-21T14:04:25;8.15;;;4.38;;
36355;SDS011;22384;54.302;18.596;2023-11-21T14:07:09;9.07;;;4.47;;
36355;SDS011;22384;54.302;18.596;2023-11-21T14:09:47;6.97;;;3.95;;
36355;SDS011;22384;54.302;18.596;2023-11-21T14:12:14;7.95;;;4.88;;
36355;SDS011;22384;54.302;18.596;2023-11-21T14:14:41;7.70;;;4.45;;
36355;SDS011;22384;54.302;18.596;2023-11-21T14:17:09;6.65;;;3.75;;
36355;SDS011;22384;54.302;18.596;2023-11-21T14:19:35;7.35;;;4.00;;
36355;SDS011;22384;54.302;18.596;2023-11-21T14:22:05;8.53;;;3.90;;
36355;SDS011;22384;54.302;18.596;2023-11-21T14:24:34;9.75;;;3.65;;
36355;SDS011;22384;54.302;18.596;2023-11-21T14:27:00;7.63;;;3.67;;
36355;SDS011;22384;54.302;18.596;2023-11-21T14:29:26;10.45;;;3.45;;
36355;SDS011;22384;54.302;18.596;2023-11-21T14:31:54;8.30;;;3.30;;
36355;SDS011;22384;54.302;18.596;2023-11-21T14:34:22;8.43;;;3.85;;
36355;SDS011;22384;54.302;18.596;2023-11-21T14:36:51;5.45;;;3.47;;
36355;SDS011;22384;54.302;18.596;2023-11-21T14:39:17;7.38;;;3.90;;
36355;SDS011;22384;54.302;18.596;2023-11-21T14:41:53;7.25;;;3.50;;
36355;SDS011;22384;54.302;18.596;2023-11-21T14:44:21;6.97;;;3.33;;
36355;SDS011;22384;54.302;18.596;2023-11-21T14:46:53;7.47;;;3.40;;